Time;durP1;ratioP1;P1;durP2;ratioP2;P2;SDS_P1;SDS_P2;PMS_P1;PMS_P2;Temp;Humidity;BMP_temperature;BMP_pressure;BME280_temperature;BME280_humidity;BME280_pressure;Samples;Min_cycle;Max_cycle;Signal;HPM_P1;HPM_P2
2022/11/12 00:02:15;;;;;;;22.60;14.48;;;6.80;99.90;;;;;;6168477;23;20021;-92
2022/11/12 00:04:41;;;;;;;19.27;13.50;;;6.70;99.90;;;;;;6145262;23;20024;-91
2022/11/12 00:07:07;;;;;;;26.35;14.93;;;6.70;99.90;;;;;;6146170;23;20238;-93
2022/11/12 00:09:32;;;;;;;21.23;14.15;;;6.70;99.90;;;;;;6170179;23;20338;-91
2022/11/12 00:11:58;;;;;;;20.55;14.75;;;6.60;99.90;;;;;;6145896;23;20017;-92
2022/11/12 00:14:24;;;;;;;22.75;15.02;;;6.50;99.90;;;;;;6145765;23;20052;-92
2022/11/12 00:16:49;;;;;;;22.95;14.07;;;6.60;99.90;;;;;;6144524;23;20480;-92
2022/11/12 00:19:15;;;;;;;19.27;13.85;;;6.50;99.90;;;;;;6145315;23;20013;-91
2022/11/12 00:21:40;;;;;;;21.17;13.27;;;6.50;99.90;;;;;;6170461;23;20346;-92
2022/11/12 00:24:06;;;;;;;27.25;15.15;;;6.40;99.90;;;;;;6146073;23;20497;-92
2022/11/12 00:26:32;;;;;;;21.00;14.07;;;6.40;99.90;;;;;;6145293;22;20066;-92
2022/11/12 00:28:58;;;;;;;22.60;14.40;;;6.30;99.90;;;;;;6145444;23;20212;-92
2022/11/12 00:31:23;;;;;;;21.92;14.93;;;6.40;99.90;;;;;;6145802;23;20104;-90
2022/11/12 00:33:49;;;;;;;23.02;15.05;;;6.30;99.90;;;;;;6143900;23;20024;-92
2022/11/12 00:36:14;;;;;;;27.25;15.85;;;6.20;99.90;;;;;;6145241;23;20097;-93
2022/11/12 00:38:40;;;;;;;28.15;17.05;;;6.40;99.90;;;;;;6144811;23;20032;-92
2022/11/12 00:41:05;;;;;;;23.80;15.60;;;6.30;99.90;;;;;;6145763;23;20013;-91
2022/11/12 00:43:31;;;;;;;22.38;14.98;;;6.40;99.90;;;;;;6145848;23;20088;-90
2022/11/12 00:45:57;;;;;;;23.58;15.05;;;6.30;99.90;;;;;;6145328;23;20013;-92
2022/11/12 00:48:22;;;;;;;24.38;16.00;;;6.30;99.90;;;;;;6143923;23;20013;-92
2022/11/12 00:50:48;;;;;;;22.42;15.27;;;6.40;99.90;;;;;;6170507;23;20017;-90
2022/11/12 00:53:13;;;;;;;25.23;16.52;;;6.20;99.90;;;;;;6145510;23;20089;-93
2022/11/12 00:55:39;;;;;;;28.15;16.23;;;6.20;99.90;;;;;;6121862;23;20017;-92
2022/11/12 00:58:05;;;;;;;24.77;16.35;;;6.20;99.90;;;;;;6121365;23;20092;-91
2022/11/12 01:00:30;;;;;;;25.70;16.25;;;6.20;99.90;;;;;;6121344;23;20149;-91
2022/11/12 01:02:56;;;;;;;24.13;16.45;;;6.30;99.90;;;;;;6120031;23;20009;-91
2022/11/12 01:05:22;;;;;;;27.95;16.88;;;6.30;99.90;;;;;;6120458;23;20102;-91
2022/11/12 01:07:47;;;;;;;24.23;16.02;;;6.20;99.90;;;;;;6121709;23;20507;-91
2022/11/12 01:10:16;;;;;;;24.88;16.25;;;6.20;99.90;;;;;;6121449;23;20021;-91
2022/11/12 01:12:42;;;;;;;27.08;15.63;;;6.30;99.90;;;;;;6120657;23;20397;-91
2022/11/12 01:15:08;;;;;;;26.42;16.67;;;6.30;99.90;;;;;;6120896;23;20017;-93
2022/11/12 01:17:34;;;;;;;28.20;17.73;;;6.30;99.90;;;;;;6119334;23;20054;-91
2022/11/12 01:19:59;;;;;;;30.92;17.67;;;6.40;99.90;;;;;;6145444;23;20023;-91
2022/11/12 01:22:25;;;;;;;30.48;18.38;;;6.30;99.90;;;;;;6120150;23;20020;-93
2022/11/12 01:24:50;;;;;;;27.55;17.45;;;6.20;99.90;;;;;;6120947;23;20120;-91
2022/11/12 01:27:16;;;;;;;28.63;17.42;;;6.30;99.90;;;;;;6121089;23;20056;-91
2022/11/12 01:29:42;;;;;;;28.25;17.27;;;6.30;99.90;;;;;;6118637;23;20028;-92
2022/11/12 01:32:07;;;;;;;31.88;18.15;;;6.30;99.90;;;;;;6119629;23;20035;-91
2022/11/12 01:34:33;;;;;;;29.75;17.98;;;6.20;99.90;;;;;;6120983;23;20024;-91
2022/11/12 01:36:59;;;;;;;27.30;18.48;;;6.20;99.90;;;;;;6120281;23;20062;-92
2022/11/12 01:39:24;;;;;;;30.67;18.13;;;6.20;99.90;;;;;;6121033;23;20017;-91
2022/11/12 01:41:50;;;;;;;32.17;18.70;;;6.20;99.90;;;;;;6120912;23;20013;-92
2022/11/12 01:44:21;;;;;;;28.35;19.10;;;6.20;99.90;;;;;;6120940;23;20392;-92
2022/11/12 01:47:03;;;;;;;30.52;19.10;;;6.10;99.90;;;;;;6119688;23;20013;-92
2022/11/12 01:49:43;;;;;;;32.53;18.25;;;6.20;99.90;;;;;;6119970;23;20270;-90
2022/11/12 01:52:33;;;;;;;28.42;18.08;;;6.10;99.90;;;;;;6121367;23;20100;-92
2022/11/12 01:55:05;;;;;;;30.77;18.48;;;6.10;99.90;;;;;;6138552;23;20009;-93
2022/11/12 01:57:39;;;;;;;30.02;17.92;;;6.00;99.90;;;;;;6145332;23;20021;-91
2022/11/12 02:00:09;;;;;;;30.85;18.33;;;6.00;99.90;;;;;;6145128;23;20017;-93
2022/11/12 02:02:36;;;;;;;30.02;17.70;;;5.90;99.90;;;;;;6143182;23;20019;-92
2022/11/12 02:05:06;;;;;;;28.20;18.42;;;6.00;99.90;;;;;;6143576;23;20024;-92
2022/11/12 02:07:33;;;;;;;28.75;17.73;;;5.90;99.90;;;;;;6144846;23;20332;-92
2022/11/12 02:10:00;;;;;;;26.95;18.13;;;5.80;99.90;;;;;;6144881;23;20508;-91
2022/11/12 02:15:25;;;;;;;29.92;18.08;;;5.80;99.90;;;;;;6135940;23;20136;-92
2022/11/12 02:17:52;;;;;;;30.05;18.58;;;5.80;99.90;;;;;;6143345;23;20013;-92
2022/11/12 02:20:18;;;;;;;35.92;19.80;;;5.70;99.90;;;;;;6143884;23;20345;-92
2022/11/12 02:22:44;;;;;;;29.90;19.10;;;5.90;99.90;;;;;;6144770;23;20104;-90
2022/11/12 02:25:17;;;;;;;27.35;18.55;;;5.80;99.90;;;;;;6144778;23;20088;-91
2022/11/12 02:27:44;;;;;;;31.80;20.10;;;5.60;99.90;;;;;;6145720;23;20028;-93
2022/11/12 02:30:10;;;;;;;34.97;20.77;;;5.60;99.90;;;;;;6146733;23;20017;-93
2022/11/12 02:32:36;;;;;;;36.53;22.45;;;5.80;99.90;;;;;;6144939;23;20009;-91
2022/11/12 02:35:04;;;;;;;33.72;20.38;;;5.70;99.90;;;;;;6145119;23;20523;-92
2022/11/12 02:37:30;;;;;;;31.95;20.58;;;5.70;99.90;;;;;;6145943;23;20074;-91
2022/11/12 02:39:56;;;;;;;34.75;21.52;;;5.60;99.90;;;;;;6146523;23;20040;-90
2022/11/12 02:42:21;;;;;;;33.83;21.55;;;5.60;99.90;;;;;;6145528;23;20116;-91
2022/11/12 02:44:47;;;;;;;35.05;21.38;;;5.70;99.90;;;;;;6146020;23;20020;-90
2022/11/12 02:47:12;;;;;;;38.50;22.70;;;5.60;99.90;;;;;;6144310;23;20182;-91
2022/11/12 02:49:38;;;;;;;39.88;23.70;;;5.60;99.90;;;;;;6145454;23;20013;-92
2022/11/12 02:52:04;;;;;;;39.53;23.55;;;5.70;99.90;;;;;;6146494;23;20048;-91
2022/11/12 02:54:29;;;;;;;35.85;23.05;;;5.60;99.90;;;;;;6145339;23;20448;-92
2022/11/12 02:56:55;;;;;;;40.75;24.05;;;5.70;99.90;;;;;;6145998;23;20082;-91
2022/11/12 02:59:21;;;;;;;37.78;22.85;;;5.60;99.90;;;;;;6145879;23;20100;-92
2022/11/12 03:01:46;;;;;;;38.97;23.27;;;5.50;99.90;;;;;;6144947;23;20047;-91
2022/11/12 03:04:12;;;;;;;52.50;25.73;;;5.60;99.90;;;;;;6144812;23;20124;-90
2022/11/12 03:06:38;;;;;;;43.92;24.63;;;5.60;99.90;;;;;;6146681;23;20296;-91
2022/11/12 03:09:04;;;;;;;47.22;26.40;;;5.50;99.90;;;;;;6171056;23;20017;-93
2022/11/12 03:11:30;;;;;;;42.90;24.58;;;5.60;99.90;;;;;;6146772;23;20408;-93
2022/11/12 03:13:55;;;;;;;48.40;25.10;;;5.50;99.90;;;;;;6145852;23;20144;-91
2022/11/12 03:16:21;;;;;;;50.03;25.58;;;5.40;99.90;;;;;;6146429;23;20020;-92
2022/11/12 03:18:46;;;;;;;37.88;22.05;;;5.30;99.90;;;;;;6169263;23;20082;-92
2022/11/12 03:21:12;;;;;;;39.40;24.23;;;5.40;99.90;;;;;;6145853;23;20009;-92
2022/11/12 03:23:37;;;;;;;40.42;23.13;;;5.20;99.90;;;;;;6146340;23;20096;-91
2022/11/12 03:26:04;;;;;;;53.25;27.35;;;5.30;99.90;;;;;;6146501;23;20125;-92
2022/11/12 03:28:29;;;;;;;44.05;25.15;;;5.40;99.90;;;;;;6146264;23;20013;-91
2022/11/12 03:30:58;;;;;;;52.78;26.38;;;5.30;99.90;;;;;;6147240;23;20329;-91
2022/11/12 03:33:24;;;;;;;39.72;23.63;;;5.30;99.90;;;;;;6144857;23;20164;-89
2022/11/12 03:35:52;;;;;;;42.17;24.55;;;5.30;99.90;;;;;;6146395;23;20024;-91
2022/11/12 03:38:18;;;;;;;45.25;25.27;;;5.10;99.90;;;;;;6145879;23;20350;-92
2022/11/12 03:40:47;;;;;;;42.30;24.55;;;5.20;99.90;;;;;;6171242;23;20532;-92
2022/11/12 03:43:12;;;;;;;47.25;27.10;;;5.10;99.90;;;;;;6144550;23;20010;-92
2022/11/12 03:45:38;;;;;;;37.80;23.30;;;5.10;99.90;;;;;;6146229;23;20052;-90
2022/11/12 03:48:04;;;;;;;22.02;14.90;;;5.10;99.90;;;;;;6144530;23;20021;-92
2022/11/12 03:50:30;;;;;;;294.75;32.47;;;4.70;99.90;;;;;;6144872;23;20070;-92
2022/11/12 03:52:58;;;;;;;92.15;23.33;;;4.50;99.90;;;;;;6145642;23;20009;-91
2022/11/12 03:55:26;;;;;;;104.25;24.13;;;4.60;99.90;;;;;;6145472;23;20028;-90
2022/11/12 03:57:53;;;;;;;43.85;23.05;;;4.80;99.90;;;;;;6145425;23;20017;-91
2022/11/12 04:00:20;;;;;;;57.78;23.58;;;4.70;99.90;;;;;;6146230;23;20104;-91
2022/11/12 04:02:46;;;;;;;41.08;21.60;;;4.60;99.90;;;;;;6143624;23;20571;-91
2022/11/12 04:10:47;;;;;;;24.55;16.85;;;4.50;99.90;;;;;;6170493;23;20050;-91
2022/11/12 04:13:27;;;;;;;33.45;19.23;;;4.60;99.90;;;;;;6145542;23;20009;-92
2022/11/12 04:21:53;;;;;;;105.10;26.23;;;4.60;99.90;;;;;;6170278;23;20050;-91
2022/11/12 04:27:17;;;;;;;39.45;22.10;;;4.50;99.90;;;;;;6170131;23;20032;-91
2022/11/12 04:32:30;;;;;;;29.30;19.90;;;4.50;99.90;;;;;;6169159;23;20089;-90
2022/11/12 04:34:56;;;;;;;30.33;19.42;;;4.50;99.90;;;;;;6145247;23;20473;-92
2022/11/12 04:37:24;;;;;;;27.30;18.77;;;4.60;99.90;;;;;;6145543;23;20054;-93
2022/11/12 04:39:51;;;;;;;28.52;19.33;;;4.50;99.90;;;;;;6146070;23;20456;-91
2022/11/12 04:45:03;;;;;;;24.00;18.45;;;4.30;99.90;;;;;;6170880;23;20074;-92
2022/11/12 04:47:40;;;;;;;28.20;18.65;;;4.50;99.90;;;;;;6167867;23;20535;-91
2022/11/12 04:50:17;;;;;;;29.58;19.73;;;4.30;99.90;;;;;;6144246;23;20100;-91
2022/11/12 04:52:43;;;;;;;33.13;20.50;;;4.40;99.90;;;;;;6144718;23;20025;-93
2022/11/12 04:55:09;;;;;;;32.80;20.88;;;4.30;99.90;;;;;;6145549;23;20017;-91
2022/11/12 04:57:36;;;;;;;33.95;20.38;;;4.30;99.90;;;;;;6144604;23;20017;-89
2022/11/12 05:00:04;;;;;;;35.65;21.60;;;4.30;99.90;;;;;;6145843;23;20005;-92
2022/11/12 05:02:33;;;;;;;33.22;21.60;;;4.30;99.90;;;;;;6143611;23;20021;-91
2022/11/12 05:04:58;;;;;;;66.95;27.58;;;4.30;99.90;;;;;;6144676;23;20442;-92
2022/11/12 05:07:24;;;;;;;35.53;21.38;;;4.20;99.90;;;;;;6145793;23;20025;-92
2022/11/12 05:09:50;;;;;;;32.78;21.23;;;4.20;99.90;;;;;;6145542;23;20021;-90
2022/11/12 05:12:15;;;;;;;47.15;24.42;;;4.30;99.90;;;;;;6145556;23;20092;-93
2022/11/12 05:14:41;;;;;;;40.22;23.02;;;4.20;99.90;;;;;;6170526;23;20450;-92
2022/11/12 05:17:07;;;;;;;42.47;24.52;;;4.40;99.90;;;;;;6143768;23;20392;-92
2022/11/12 05:19:33;;;;;;;72.00;30.80;;;4.40;99.90;;;;;;6144747;23;20009;-90
2022/11/12 05:22:05;;;;;;;40.92;23.98;;;4.40;99.90;;;;;;6145647;23;20023;-91
2022/11/12 05:24:39;;;;;;;48.92;27.10;;;4.30;99.90;;;;;;6145627;23;20055;-92
2022/11/12 05:27:14;;;;;;;41.33;24.90;;;4.30;99.90;;;;;;6144758;23;20013;-91
2022/11/12 05:29:40;;;;;;;47.70;27.00;;;4.30;99.90;;;;;;6145708;23;20038;-92
2022/11/12 05:32:14;;;;;;;73.25;31.27;;;4.40;99.90;;;;;;6144204;23;20162;-92
2022/11/12 05:34:40;;;;;;;162.18;37.70;;;4.30;99.90;;;;;;6145126;23;20442;-92
2022/11/12 05:37:08;;;;;;;60.28;28.80;;;4.30;99.90;;;;;;6170484;23;20027;-92
2022/11/12 05:39:36;;;;;;;53.85;27.52;;;4.30;99.90;;;;;;6145543;23;20290;-92
2022/11/12 05:42:03;;;;;;;65.50;27.98;;;4.40;99.90;;;;;;6144833;23;20013;-92
2022/11/12 05:44:28;;;;;;;107.97;34.92;;;4.30;99.90;;;;;;6145582;23;20013;-92
2022/11/12 05:46:54;;;;;;;73.57;31.10;;;4.30;99.90;;;;;;6144301;23;20670;-92
2022/11/12 05:49:20;;;;;;;61.08;29.17;;;4.40;99.90;;;;;;6144420;23;20457;-92
2022/11/12 05:51:46;;;;;;;65.18;31.25;;;4.50;99.90;;;;;;6145376;23;20009;-90
2022/11/12 05:54:11;;;;;;;51.53;28.45;;;4.40;99.90;;;;;;6170347;22;20458;-92
2022/11/12 05:56:38;;;;;;;58.60;29.92;;;4.40;99.90;;;;;;6145589;23;20021;-91
2022/11/12 05:59:06;;;;;;;84.65;31.52;;;4.40;99.90;;;;;;6145435;23;20231;-92
2022/11/12 06:01:33;;;;;;;65.70;30.00;;;4.40;99.90;;;;;;6145761;23;20017;-93
2022/11/12 06:03:58;;;;;;;49.13;28.02;;;4.50;99.90;;;;;;6145953;23;20303;-91
2022/11/12 06:06:24;;;;;;;68.90;29.63;;;4.50;99.90;;;;;;6146207;23;20100;-91
2022/11/12 06:08:50;;;;;;;80.35;33.15;;;4.50;99.90;;;;;;6146719;23;20319;-90
2022/11/12 06:11:16;;;;;;;232.95;40.92;;;4.50;99.90;;;;;;6147098;23;20013;-92
2022/11/12 06:13:44;;;;;;;104.20;28.58;;;4.40;99.90;;;;;;6146707;23;20127;-92
2022/11/12 06:16:10;;;;;;;100.05;26.77;;;4.40;99.90;;;;;;6146610;23;20043;-92
2022/11/12 06:18:36;;;;;;;75.50;24.80;;;4.40;99.90;;;;;;6145444;23;20013;-92
2022/11/12 06:21:19;;;;;;;97.55;23.70;;;4.40;99.90;;;;;;6146731;23;20090;-92
2022/11/12 06:23:45;;;;;;;46.53;20.15;;;4.40;99.90;;;;;;6171505;23;20048;-92
2022/11/12 06:26:11;;;;;;;45.20;19.40;;;4.40;99.90;;;;;;6147068;23;20021;-92
2022/11/12 06:28:36;;;;;;;144.80;27.00;;;4.30;99.90;;;;;;6171587;22;20039;-91
2022/11/12 06:31:02;;;;;;;54.88;21.75;;;4.30;99.90;;;;;;6147380;23;20077;-91
2022/11/12 06:33:28;;;;;;;43.35;21.15;;;4.40;99.90;;;;;;6145246;23;20100;-93
2022/11/12 06:36:01;;;;;;;39.92;20.60;;;4.40;99.90;;;;;;6146316;23;20083;-91
2022/11/12 06:38:29;;;;;;;36.88;19.42;;;4.40;99.90;;;;;;6146139;23;20028;-91
2022/11/12 06:40:55;;;;;;;43.80;20.25;;;4.20;99.90;;;;;;6146398;23;20101;-91
2022/11/12 06:43:20;;;;;;;51.53;21.75;;;4.20;99.90;;;;;;6146012;23;20040;-92
2022/11/12 06:45:46;;;;;;;57.17;20.13;;;4.40;99.90;;;;;;6146759;23;20052;-91
2022/11/12 06:48:12;;;;;;;69.00;25.40;;;4.40;99.90;;;;;;6145059;23;20098;-92
2022/11/12 06:50:37;;;;;;;52.78;22.58;;;4.40;99.90;;;;;;6146035;23;20096;-92
2022/11/12 06:53:03;;;;;;;34.53;19.77;;;4.60;99.90;;;;;;6146649;23;20027;-92
2022/11/12 06:55:28;;;;;;;36.60;19.38;;;4.60;99.90;;;;;;6146239;23;20017;-92
2022/11/12 06:57:54;;;;;;;36.13;20.80;;;4.70;99.90;;;;;;6146041;23;20028;-91
2022/11/12 07:00:20;;;;;;;123.13;28.02;;;4.70;99.90;;;;;;6146865;23;20310;-92
2022/11/12 07:02:46;;;;;;;93.10;24.85;;;4.80;99.90;;;;;;6144017;23;20016;-92
2022/11/12 07:05:12;;;;;;;98.32;26.52;;;4.80;99.90;;;;;;6145997;23;20020;-92
2022/11/12 07:07:37;;;;;;;61.10;24.02;;;4.90;99.90;;;;;;6146358;23;20041;-91
2022/11/12 07:10:03;;;;;;;39.75;22.50;;;5.00;99.90;;;;;;6146450;23;20024;-92
2022/11/12 07:12:29;;;;;;;52.15;24.30;;;5.10;99.90;;;;;;6145547;22;20044;-92
2022/11/12 07:14:55;;;;;;;45.58;23.23;;;5.10;99.90;;;;;;6146336;23;20315;-91
2022/11/12 07:17:21;;;;;;;54.22;23.02;;;5.20;99.90;;;;;;6169335;23;20013;-91
2022/11/12 07:19:46;;;;;;;68.20;24.55;;;5.40;99.90;;;;;;6145760;23;20460;-92
2022/11/12 07:22:12;;;;;;;78.13;26.92;;;5.40;99.90;;;;;;6146716;23;20032;-92
2022/11/12 07:24:41;;;;;;;91.43;26.92;;;5.50;99.90;;;;;;6146583;23;20016;-91
2022/11/12 07:27:06;;;;;;;136.65;31.63;;;5.70;99.90;;;;;;6171647;23;20116;-92
2022/11/12 07:29:32;;;;;;;163.18;33.42;;;5.70;99.90;;;;;;6171132;23;20472;-91
2022/11/12 07:31:57;;;;;;;116.93;28.70;;;5.80;99.90;;;;;;6144921;23;20146;-91
2022/11/12 07:34:23;;;;;;;73.15;27.63;;;5.90;99.90;;;;;;6145415;23;20028;-92
2022/11/12 07:36:50;;;;;;;53.42;24.10;;;6.00;99.90;;;;;;6146130;23;20028;-92
2022/11/12 07:39:17;;;;;;;54.42;24.92;;;6.00;99.90;;;;;;6144869;23;20040;-88
2022/11/12 07:41:43;;;;;;;56.83;25.15;;;6.10;99.90;;;;;;6168326;23;20020;-89
2022/11/12 07:44:09;;;;;;;63.25;25.15;;;6.20;99.90;;;;;;6144412;23;20015;-89
2022/11/12 07:46:34;;;;;;;77.75;25.67;;;6.20;99.90;;;;;;6143482;23;20025;-89
2022/11/12 07:49:00;;;;;;;60.20;25.70;;;6.20;99.90;;;;;;6142918;23;20028;-89
2022/11/12 07:51:28;;;;;;;115.25;33.80;;;6.30;99.90;;;;;;6144267;23;20036;-88
2022/11/12 07:53:56;;;;;;;78.38;31.02;;;6.50;99.90;;;;;;6168901;23;20029;-89
2022/11/12 07:56:23;;;;;;;83.78;29.73;;;6.60;99.90;;;;;;6145104;23;20025;-88
2022/11/12 07:58:49;;;;;;;192.95;37.38;;;6.50;99.90;;;;;;6144239;23;20333;-89
2022/11/12 08:01:20;;;;;;;128.57;32.03;;;6.60;99.90;;;;;;6144584;23;20024;-88
2022/11/12 08:03:46;;;;;;;95.57;27.58;;;6.60;99.90;;;;;;6142975;23;20013;-89
2022/11/12 08:06:12;;;;;;;143.18;34.40;;;6.80;99.90;;;;;;6143709;23;20116;-88
2022/11/12 08:08:37;;;;;;;70.43;29.85;;;6.80;99.90;;;;;;6144279;23;20021;-88
2022/11/12 08:11:03;;;;;;;223.85;40.30;;;6.90;99.90;;;;;;6145147;23;20465;-88
2022/11/12 08:13:29;;;;;;;298.63;46.25;;;6.90;99.90;;;;;;6143902;23;20377;-87
2022/11/12 08:15:58;;;;;;;264.98;39.83;;;7.00;99.90;;;;;;6144669;23;20063;-88
2022/11/12 08:18:24;;;;;;;108.78;29.52;;;7.00;99.90;;;;;;6167204;23;20066;-88
2022/11/12 08:20:50;;;;;;;98.72;31.58;;;7.10;99.90;;;;;;6143521;23;20024;-88
2022/11/12 08:23:16;;;;;;;86.80;28.27;;;7.20;99.90;;;;;;6169252;23;20009;-88
2022/11/12 08:25:44;;;;;;;92.05;29.45;;;7.30;99.90;;;;;;6144607;23;20047;-88
2022/11/12 08:28:10;;;;;;;170.35;37.38;;;7.30;99.90;;;;;;6143607;23;20067;-88
2022/11/12 08:30:35;;;;;;;136.07;34.75;;;7.40;99.90;;;;;;6168956;23;20323;-89
2022/11/12 08:33:03;;;;;;;213.82;40.63;;;7.30;99.90;;;;;;6141273;23;20021;-89
2022/11/12 08:35:31;;;;;;;84.15;28.27;;;7.50;99.90;;;;;;6143751;23;20020;-87
2022/11/12 08:37:59;;;;;;;75.35;27.08;;;7.50;99.90;;;;;;6168437;23;20013;-88
2022/11/12 08:40:28;;;;;;;174.68;35.13;;;7.60;99.90;;;;;;6143907;23;20028;-89
2022/11/12 08:43:05;;;;;;;152.98;36.63;;;7.60;99.90;;;;;;6144176;23;20103;-89
2022/11/12 08:45:32;;;;;;;247.85;39.42;;;7.70;99.90;;;;;;6143311;23;20095;-89
2022/11/12 08:47:59;;;;;;;149.13;31.20;;;7.70;99.90;;;;;;6142340;23;20370;-88
2022/11/12 08:50:26;;;;;;;190.57;36.67;;;7.80;99.90;;;;;;6142877;23;20046;-90
2022/11/12 08:52:51;;;;;;;135.38;30.35;;;7.90;99.90;;;;;;6143828;23;20021;-88
2022/11/12 08:55:17;;;;;;;256.92;42.15;;;8.00;99.90;;;;;;6143923;23;20044;-87
2022/11/12 08:57:43;;;;;;;163.85;34.25;;;8.00;99.90;;;;;;6143451;23;20013;-88
2022/11/12 09:00:11;;;;;;;126.03;29.85;;;8.00;99.90;;;;;;6168889;23;20216;-87
2022/11/12 09:02:37;;;;;;;234.45;39.58;;;8.00;99.90;;;;;;6141961;23;20048;-87
2022/11/12 09:05:03;;;;;;;128.27;31.23;;;8.20;99.90;;;;;;6143309;23;20284;-88
2022/11/12 09:07:29;;;;;;;157.48;33.70;;;8.40;99.90;;;;;;6168302;23;20092;-89
2022/11/12 09:09:54;;;;;;;85.60;29.08;;;8.40;99.90;;;;;;6144089;23;20076;-89
2022/11/12 09:12:20;;;;;;;206.88;36.10;;;8.50;99.90;;;;;;6143369;23;20455;-88
2022/11/12 09:14:48;;;;;;;264.38;38.70;;;8.60;99.90;;;;;;6143628;23;20514;-88
2022/11/12 09:17:14;;;;;;;175.60;32.38;;;8.60;99.90;;;;;;6141627;23;20731;-87
2022/11/12 09:19:40;;;;;;;115.85;27.50;;;8.50;99.90;;;;;;6142631;23;20013;-88
2022/11/12 09:22:06;;;;;;;121.03;27.13;;;8.60;99.90;;;;;;6168175;23;20088;-88
2022/11/12 09:24:31;;;;;;;208.27;31.80;;;8.50;99.90;;;;;;6142794;23;20013;-87
2022/11/12 09:26:57;;;;;;;271.48;36.88;;;8.70;99.90;;;;;;6142323;23;20009;-87
2022/11/12 09:29:23;;;;;;;231.63;31.85;;;8.80;99.90;;;;;;6142467;23;20009;-88
2022/11/12 09:31:49;;;;;;;172.13;32.22;;;8.80;99.90;;;;;;6142451;23;20066;-88
2022/11/12 09:34:15;;;;;;;209.52;37.05;;;8.80;99.90;;;;;;6140804;23;20378;-87
2022/11/12 09:36:41;;;;;;;241.38;37.22;;;8.90;99.90;;;;;;6143083;23;20016;-87
2022/11/12 09:39:07;;;;;;;170.88;30.35;;;9.00;99.90;;;;;;6143751;23;20017;-86
2022/11/12 09:41:38;;;;;;;146.50;30.75;;;9.10;99.90;;;;;;6143067;23;20009;-89
2022/11/12 09:44:14;;;;;;;195.45;29.58;;;9.10;99.90;;;;;;6168630;23;20401;-86
2022/11/12 09:46:48;;;;;;;166.18;33.17;;;9.10;99.90;;;;;;6166117;23;20302;-87
2022/11/12 09:49:23;;;;;;;176.98;31.90;;;9.10;99.90;;;;;;6141632;23;20165;-88
2022/11/12 09:51:52;;;;;;;109.20;28.55;;;9.00;99.90;;;;;;6143544;23;20053;-87
2022/11/12 09:54:27;;;;;;;183.20;35.38;;;9.40;99.90;;;;;;6143499;23;20076;-87
2022/11/12 09:56:53;;;;;;;246.55;38.03;;;9.40;99.90;;;;;;6167869;23;20120;-88
2022/11/12 09:59:21;;;;;;;177.05;33.38;;;9.30;99.90;;;;;;6167966;23;20074;-88
2022/11/12 10:02:01;;;;;;;159.05;32.95;;;9.30;99.90;;;;;;6142210;23;20273;-87
2022/11/12 10:04:48;;;;;;;138.50;29.05;;;9.20;99.90;;;;;;6167173;23;20019;-86
2022/11/12 10:07:32;;;;;;;63.20;24.92;;;9.30;99.90;;;;;;6143189;23;20015;-88
2022/11/12 10:10:14;;;;;;;204.75;32.33;;;9.50;99.90;;;;;;6168215;23;20016;-88
2022/11/12 10:12:49;;;;;;;130.55;30.27;;;9.40;99.90;;;;;;6143052;23;20016;-88
2022/11/12 10:18:20;;;;;;;101.72;31.05;;;9.40;99.90;;;;;;6165264;23;20391;-88
2022/11/12 10:20:57;;;;;;;84.47;28.08;;;9.40;99.90;;;;;;6141330;23;20020;-87
2022/11/12 10:23:46;;;;;;;53.70;25.35;;;9.50;99.90;;;;;;6142314;23;20402;-88
2022/11/12 10:26:17;;;;;;;130.32;31.35;;;9.70;99.90;;;;;;6143452;23;20024;-88
2022/11/12 10:28:48;;;;;;;115.35;29.15;;;9.60;99.90;;;;;;6142393;23;20021;-87
2022/11/12 10:31:19;;;;;;;87.45;27.88;;;9.60;99.90;;;;;;6143006;23;20017;-87
2022/11/12 10:33:45;;;;;;;79.38;26.15;;;9.60;99.90;;;;;;6166008;23;20410;-87
2022/11/12 10:36:16;;;;;;;90.90;25.52;;;9.60;99.90;;;;;;6141640;23;20032;-89
2022/11/12 10:38:44;;;;;;;57.55;22.15;;;9.50;99.90;;;;;;6167558;23;20025;-87
2022/11/12 10:41:22;;;;;;;54.38;22.10;;;9.50;99.90;;;;;;6142568;23;20096;-88
2022/11/12 10:44:03;;;;;;;43.13;23.38;;;9.70;99.90;;;;;;6142784;23;20025;-87
2022/11/12 10:46:32;;;;;;;75.28;25.23;;;9.80;99.90;;;;;;6167346;23;20049;-88
2022/11/12 10:49:07;;;;;;;37.95;22.55;;;9.50;99.90;;;;;;6143213;23;20024;-88
2022/11/12 10:51:37;;;;;;;40.65;22.02;;;9.70;99.90;;;;;;6274015;22;20067;-88
2022/11/12 10:54:18;;;;;;;40.30;23.42;;;9.40;99.90;;;;;;6144249;23;20476;-88
2022/11/12 10:56:43;;;;;;;44.70;23.33;;;9.40;99.90;;;;;;6143866;23;20338;-87
2022/11/12 10:59:18;;;;;;;55.20;24.48;;;9.30;99.90;;;;;;6169400;23;20017;-88
2022/11/12 11:01:52;;;;;;;56.25;27.13;;;9.50;99.90;;;;;;6142809;23;20017;-87
2022/11/12 11:04:33;;;;;;;61.70;26.93;;;9.60;99.90;;;;;;6143473;23;20048;-88
2022/11/12 11:07:18;;;;;;;48.08;26.98;;;9.90;99.90;;;;;;6144446;23;20245;-88
2022/11/12 11:09:55;;;;;;;40.45;26.40;;;9.70;99.90;;;;;;6169147;23;20025;-87
2022/11/12 11:12:42;;;;;;;50.92;28.13;;;9.90;99.90;;;;;;6143649;23;20021;-86
2022/11/12 11:15:21;;;;;;;47.85;28.08;;;10.00;99.90;;;;;;6168583;23;20101;-89
2022/11/12 11:17:46;;;;;;;45.67;26.83;;;9.80;99.90;;;;;;6141868;23;20024;-88
2022/11/12 11:20:34;;;;;;;42.78;27.73;;;10.10;99.90;;;;;;6142655;23;20017;-88
2022/11/12 11:23:29;;;;;;;44.42;27.65;;;9.90;99.90;;;;;;6168552;23;20507;-88
2022/11/12 11:26:04;;;;;;;42.53;27.50;;;9.90;99.90;;;;;;6185448;23;20409;-88
2022/11/12 11:28:50;;;;;;;43.10;28.08;;;10.10;99.90;;;;;;6168158;23;20017;-86
2022/11/12 11:31:47;;;;;;;43.22;27.45;;;10.30;99.90;;;;;;6143818;23;20020;-89
2022/11/12 11:34:38;;;;;;;38.92;26.25;;;10.60;99.90;;;;;;6167196;23;20017;-88
2022/11/12 11:37:27;;;;;;;42.35;26.90;;;10.50;99.90;;;;;;6142852;23;20028;-86
2022/11/12 11:39:59;;;;;;;38.45;26.27;;;11.00;99.90;;;;;;6168243;23;20066;-88
2022/11/12 11:42:46;;;;;;;42.15;26.88;;;11.00;99.90;;;;;;6168551;23;20093;-88
2022/11/12 11:45:30;;;;;;;41.60;26.98;;;10.80;99.90;;;;;;6143746;23;20017;-87
2022/11/12 11:48:17;;;;;;;40.65;27.67;;;10.90;99.90;;;;;;6141364;23;20099;-87
2022/11/12 11:50:58;;;;;;;38.33;25.52;;;10.90;99.90;;;;;;6143623;23;20020;-87
2022/11/12 11:53:42;;;;;;;37.97;26.55;;;10.70;99.90;;;;;;6168654;23;20013;-87
2022/11/12 11:56:25;;;;;;;39.30;27.67;;;10.80;99.90;;;;;;6143826;23;20349;-87
2022/11/12 11:59:15;;;;;;;38.65;25.90;;;11.10;99.90;;;;;;6118715;23;20009;-88
2022/11/12 12:01:50;;;;;;;40.10;28.05;;;11.00;99.90;;;;;;6142714;23;20238;-88
2022/11/12 12:04:45;;;;;;;39.72;25.75;;;11.50;99.90;;;;;;6117883;23;20513;-88
2022/11/12 12:07:23;;;;;;;38.80;25.38;;;11.20;99.90;;;;;;6144059;23;20466;-89
2022/11/12 12:10:13;;;;;;;36.20;24.35;;;11.60;99.90;;;;;;6119975;23;20105;-87
2022/11/12 12:12:54;;;;;;;34.15;24.88;;;11.40;99.90;;;;;;6118497;23;20991;-87
2022/11/12 12:15:39;;;;;;;34.80;23.85;;;11.70;99.90;;;;;;6120088;23;20933;-87
2022/11/12 12:18:23;;;;;;;40.28;25.42;;;11.90;99.90;;;;;;6141384;23;20016;-88
2022/11/12 12:21:12;;;;;;;32.92;23.50;;;12.00;99.90;;;;;;6118184;23;20395;-87
2022/11/12 12:23:49;;;;;;;33.20;23.17;;;11.50;99.90;;;;;;6118899;23;20017;-89
2022/11/12 12:26:34;;;;;;;35.63;24.83;;;11.20;99.90;;;;;;6143344;23;20064;-87
2022/11/12 12:29:35;;;;;;;36.00;25.15;;;11.10;99.90;;;;;;6118447;23;20048;-88
2022/11/12 12:32:14;;;;;;;31.98;23.83;;;11.40;99.90;;;;;;6117141;23;20013;-87
2022/11/12 12:34:47;;;;;;;34.25;24.05;;;11.50;99.90;;;;;;6117722;23;20013;-87
2022/11/12 12:37:34;;;;;;;30.60;22.35;;;11.10;99.90;;;;;;6118190;23;20658;-88
2022/11/12 12:40:43;;;;;;;33.30;23.15;;;11.20;99.90;;;;;;6118558;23;20403;-86
2022/11/12 12:43:26;;;;;;;31.80;23.23;;;11.10;99.90;;;;;;6142942;23;20073;-87
2022/11/12 12:45:52;;;;;;;35.72;23.00;;;11.10;99.90;;;;;;6118591;23;20481;-87
2022/11/12 12:48:23;;;;;;;34.03;24.27;;;11.30;99.90;;;;;;6116984;23;20021;-87
2022/11/12 12:50:50;;;;;;;30.33;22.63;;;11.50;99.90;;;;;;6118425;23;20412;-86
2022/11/12 12:53:39;;;;;;;32.13;23.13;;;11.50;99.90;;;;;;6118448;23;20025;-87
2022/11/12 12:56:31;;;;;;;31.20;22.42;;;11.50;99.90;;;;;;6143354;23;20036;-87
2022/11/12 12:59:02;;;;;;;30.65;22.52;;;11.50;99.90;;;;;;6143470;23;20146;-87
2022/11/12 13:01:32;;;;;;;32.47;22.48;;;11.10;99.90;;;;;;6143217;23;20016;-86
2022/11/12 13:04:08;;;;;;;31.83;22.30;;;11.30;99.90;;;;;;6117844;23;20446;-87
2022/11/12 13:06:39;;;;;;;30.50;22.30;;;11.40;99.90;;;;;;6117554;23;20330;-86
2022/11/12 13:09:11;;;;;;;31.25;22.30;;;11.50;99.90;;;;;;6118327;23;20082;-88
2022/11/12 13:14:36;;;;;;;27.52;21.58;;;11.50;99.90;;;;;;6142576;23;20021;-87
2022/11/12 13:17:03;;;;;;;30.20;22.20;;;11.40;99.90;;;;;;6116582;23;20024;-87